createdAt,value
2016-04-22T00:00:07.113Z,69.91
2016-04-22T00:02:07.057Z,69.91
2016-04-22T00:03:06.903Z,69.71
2016-04-22T00:04:06.868Z,70.19
2016-04-22T00:05:06.855Z,70.19
2016-04-22T00:06:06.420Z,69.81
2016-04-22T00:07:06.845Z,69.81
2016-04-22T00:08:06.864Z,69.81
2016-04-22T00:09:07.100Z,69.71
2016-04-22T00:10:06.869Z,69.71
2016-04-22T00:11:06.856Z,69.71
2016-04-22T00:12:06.858Z,69.81
2016-04-22T00:13:06.861Z,69.81
2016-04-22T00:14:20.961Z,69.71
2016-04-22T00:15:06.851Z,70.19
2016-04-22T00:16:06.869Z,69.62
2016-04-22T00:17:06.872Z,70.19
2016-04-22T00:18:07.093Z,69.62
2016-04-22T00:19:06.862Z,69.81
2016-04-22T00:20:06.880Z,69.62
2016-04-22T00:21:06.883Z,69.71
2016-04-22T00:22:07.104Z,69.34
2016-04-22T00:23:07.060Z,69.53
2016-04-22T00:24:06.907Z,69.71
2016-04-22T00:25:06.878Z,69.62
2016-04-22T00:26:07.068Z,69.71
2016-04-22T00:27:06.883Z,69.91
2016-04-22T00:28:06.871Z,69.91
2016-04-22T00:29:20.954Z,69.91
2016-04-22T00:30:06.876Z,69.71
2016-04-22T00:31:06.848Z,69.53
2016-04-22T00:32:06.851Z,69.91
2016-04-22T00:33:07.071Z,69.71
2016-04-22T00:34:06.871Z,69.81
2016-04-22T00:35:06.873Z,69.71
2016-04-22T00:36:06.861Z,69.71
2016-04-22T00:37:06.864Z,69.62
2016-04-22T00:38:21.152Z,69.62
2016-04-22T00:39:06.870Z,69.71
2016-04-22T00:40:06.872Z,69.91
2016-04-22T00:41:07.094Z,69.91
2016-04-22T00:42:06.863Z,69.91
2016-04-22T00:43:06.865Z,70.1
2016-04-22T00:45:06.871Z,70
2016-04-22T00:46:07.076Z,69.62
2016-04-22T00:47:06.907Z,69.91
2016-04-22T00:48:06.862Z,69.62
2016-04-22T00:49:06.896Z,70
2016-04-22T00:50:06.898Z,69.71
2016-04-22T00:51:07.074Z,70.19
2016-04-22T00:52:07.123Z,69.91
2016-04-22T00:53:06.861Z,69.71
2016-04-22T00:54:06.910Z,70.06
2016-04-22T00:55:06.882Z,69.96
2016-04-22T00:56:06.728Z,69.78
2016-04-22T00:57:06.886Z,70.06
2016-04-22T00:58:06.905Z,70.35
2016-04-22T00:59:21.161Z,70.38
2016-04-22T01:00:06.864Z,69.96
2016-04-22T01:01:06.866Z,70.06
2016-04-22T01:02:06.869Z,70.44
2016-04-22T01:03:06.918Z,70.1
2016-04-22T01:04:06.858Z,70.15
2016-04-22T01:05:06.877Z,70.06
2016-04-22T01:06:06.911Z,70.06
2016-04-22T01:07:06.866Z,70
2016-04-22T01:08:06.916Z,70.44
2016-04-22T01:09:06.857Z,70.54
2016-04-22T01:10:06.874Z,69.96
2016-04-22T01:11:06.862Z,70.06
2016-04-22T01:12:06.865Z,69.87
2016-04-22T01:14:06.870Z,69.96
2016-04-22T01:15:06.857Z,69.96
2016-04-22T01:17:07.065Z,69.96
2016-04-22T01:18:06.865Z,70.15
2016-04-22T01:19:06.696Z,70.73
2016-04-22T01:20:07.104Z,70.35
2016-04-22T01:21:06.857Z,70.35
2016-04-22T01:22:06.860Z,71.01
2016-04-22T01:23:06.879Z,71.01
2016-04-22T01:24:07.053Z,71.45
2016-04-22T01:25:06.853Z,70.88
2016-04-22T01:26:20.952Z,71.07
2016-04-22T01:27:07.108Z,71.36
2016-04-22T01:28:07.080Z,71.45
2016-04-22T01:29:06.864Z,71.36
2016-04-22T01:30:07.085Z,71.45
2016-04-22T01:31:06.884Z,71.45
2016-04-22T01:32:06.856Z,71.45
2016-04-22T01:33:06.858Z,71.36
2016-04-22T01:34:06.846Z,71.64
2016-04-22T01:35:06.849Z,71.92
2016-04-22T01:36:06.852Z,71.55
2016-04-22T01:37:06.869Z,71.92
2016-04-22T01:38:06.857Z,71.55
2016-04-22T01:39:06.860Z,72.02
2016-04-22T01:40:06.862Z,72.02
2016-04-22T01:41:07.474Z,72.02
2016-04-22T01:42:06.852Z,72.49
2016-04-22T01:43:06.855Z,72.21
2016-04-22T01:44:06.873Z,71.92
2016-04-22T01:45:06.844Z,72.02
2016-04-22T01:46:06.878Z,71.83
2016-04-22T01:47:06.834Z,72.4
2016-04-22T01:48:06.837Z,72.4
2016-04-22T01:49:06.840Z,72.02
2016-04-22T01:50:06.842Z,71.73
2016-04-22T01:51:07.017Z,71.55
2016-04-22T01:52:06.832Z,71.36
2016-04-22T01:53:07.068Z,71.55
2016-04-22T01:54:07.040Z,71.55
2016-04-22T01:55:06.840Z,71.64
2016-04-22T01:56:06.827Z,72.21
2016-04-22T01:57:07.048Z,71.92
2016-04-22T01:58:06.832Z,72.21
2016-04-22T01:59:07.241Z,71.92
2016-04-22T02:00:06.822Z,72.21
2016-04-22T02:01:06.825Z,72.21
2016-04-22T02:02:06.828Z,72.11
2016-04-22T02:03:06.830Z,72.3
2016-04-22T02:05:06.836Z,72.49
2016-04-22T02:06:06.822Z,72.4
2016-04-22T02:07:06.841Z,72.11
2016-04-22T02:08:06.828Z,71.92
2016-04-22T02:09:06.831Z,71.92
2016-04-22T02:10:06.818Z,72.11
2016-04-22T02:11:06.821Z,71.92
2016-04-22T02:12:06.824Z,72.11
2016-04-22T02:13:07.013Z,72.11
2016-04-22T02:14:06.813Z,72.4
2016-04-22T02:15:06.816Z,72.4
2016-04-22T02:16:06.849Z,72.4
2016-04-22T02:17:06.805Z,72.4
2016-04-22T02:18:06.808Z,71.73
2016-04-22T02:19:06.810Z,72.02
2016-04-22T02:20:06.813Z,72.02
2016-04-22T02:21:06.816Z,71.55
2016-04-22T02:22:06.804Z,72.11
2016-04-22T02:23:06.806Z,72.11
2016-04-22T02:24:06.793Z,72.49
2016-04-22T02:25:06.795Z,72.4
2016-04-22T02:26:06.814Z,72.4
2016-04-22T02:27:06.832Z,72.3
2016-04-22T02:28:07.054Z,72.3
2016-04-22T02:29:06.806Z,72.4
2016-04-22T02:30:06.793Z,72.68
2016-04-22T02:31:06.812Z,73.35
2016-04-22T02:32:06.783Z,72.93
2016-04-22T02:33:07.036Z,72.97
2016-04-22T02:34:06.835Z,72.97
2016-04-22T02:35:06.791Z,73.31
2016-04-22T02:36:06.794Z,73.5
2016-04-22T02:37:06.797Z,73.88
2016-04-22T02:39:06.786Z,73.88
2016-04-22T02:40:07.024Z,73.69
2016-04-22T02:41:06.026Z,74.07
2016-04-22T02:43:06.782Z,73.88
2016-04-22T02:44:06.785Z,74.26
2016-04-22T02:45:06.787Z,74.07
2016-04-22T02:46:06.805Z,74.35
2016-04-22T02:47:06.776Z,74.35
2016-04-22T02:48:06.763Z,74.35
2016-04-22T02:49:06.782Z,73.88
2016-04-22T02:50:06.768Z,73.97
2016-04-22T02:51:06.771Z,73.79
2016-04-22T02:52:06.806Z,74.35
2016-04-22T02:53:06.980Z,75.59
2016-04-22T02:54:06.779Z,75.59
2016-04-22T02:55:06.767Z,75.49
2016-04-22T02:56:06.769Z,75.49
2016-04-22T02:57:06.757Z,75.31
2016-04-22T02:58:06.776Z,75.31
2016-04-22T02:59:06.745Z,75.59
2016-04-22T03:00:06.765Z,76.06
2016-04-22T03:01:06.751Z,75.96
2016-04-22T03:02:06.754Z,75.87
2016-04-22T03:03:06.961Z,75.96
2016-04-22T03:04:06.744Z,76.34
2016-04-22T03:05:06.966Z,75.68
2016-04-22T03:06:06.733Z,75.87
2016-04-22T03:07:06.736Z,75.49
2016-04-22T03:08:06.770Z,75.87
2016-04-22T03:09:06.741Z,76.25
2016-04-22T03:10:06.760Z,76.44
2016-04-22T03:11:06.763Z,76.82
2016-04-22T03:12:06.281Z,76.25
2016-04-22T03:13:06.753Z,76.06
2016-04-22T03:14:06.740Z,76.06
2016-04-22T03:15:07.149Z,75.87
2016-04-22T03:16:06.730Z,75.68
2016-04-22T03:18:06.735Z,75.4
2016-04-22T03:19:06.722Z,75.4
2016-04-22T03:20:06.756Z,75.68
2016-04-22T03:21:06.759Z,75.78
2016-04-22T03:22:20.808Z,75.68
2016-04-22T03:24:06.267Z,75.59
2016-04-22T03:25:06.723Z,75.59
2016-04-22T03:26:06.944Z,75.59
2016-04-22T03:27:06.729Z,75.02
2016-04-22T03:28:06.934Z,75.59
2016-04-22T03:29:06.921Z,75.21
2016-04-22T03:30:06.923Z,75.4
2016-04-22T03:31:06.739Z,75.02
2016-04-22T03:32:06.726Z,75.21
2016-04-22T03:33:07.103Z,74.83
2016-04-22T03:34:07.137Z,75.21
2016-04-22T03:35:06.936Z,74.83
2016-04-22T03:36:06.705Z,74.92
2016-04-22T03:37:06.942Z,74.73
2016-04-22T03:38:06.257Z,74.54
2016-04-22T03:39:06.698Z,74.73
2016-04-22T03:40:06.700Z,74.73
2016-04-22T03:41:06.703Z,74.35
2016-04-22T03:42:06.691Z,74.45
2016-04-22T03:43:06.911Z,74.45
2016-04-22T03:44:06.696Z,74.16
2016-04-22T03:45:07.120Z,74.16
2016-04-22T03:46:06.888Z,74.45
2016-04-22T03:47:06.688Z,73.88
2016-04-22T03:48:06.675Z,73.79
2016-04-22T03:49:06.693Z,74.07
2016-04-22T03:50:06.680Z,73.97
2016-04-22T03:51:06.667Z,74.07
2016-04-22T03:52:06.670Z,73.88
2016-04-22T03:53:06.891Z,73.97
2016-04-22T03:54:06.691Z,73.79
2016-04-22T03:55:06.866Z,73.6
2016-04-22T03:56:06.713Z,73.79
2016-04-22T03:57:06.902Z,73.69
2016-04-22T03:58:06.671Z,73.97
2016-04-22T03:59:06.720Z,73.69
2016-04-22T04:00:06.692Z,73.79
2016-04-22T04:01:06.663Z,73.41
2016-04-22T04:02:06.681Z,73.41
2016-04-22T04:03:06.700Z,73.69
2016-04-22T04:04:06.499Z,73.5
2016-04-22T04:05:06.720Z,73.6
2016-04-22T04:06:06.661Z,73.6
2016-04-22T04:07:06.663Z,73.69
2016-04-22T04:09:06.638Z,73.88
2016-04-22T04:10:06.656Z,73.79
2016-04-22T04:11:06.675Z,73.6
2016-04-22T04:12:06.646Z,73.79
2016-04-22T04:13:06.649Z,73.72
2016-04-22T04:14:06.651Z,73.5
2016-04-22T04:15:06.654Z,73.69
2016-04-22T04:16:06.860Z,73.69
2016-04-22T04:17:06.643Z,73.12
2016-04-22T04:18:06.849Z,72.88
2016-04-22T04:19:06.883Z,72.97
2016-04-22T04:20:06.651Z,72.88
2016-04-22T04:21:06.654Z,72.97
2016-04-22T04:22:07.048Z,73.25
2016-04-22T04:23:06.643Z,72.88
2016-04-22T04:24:06.731Z,72.59
2016-04-22T04:25:06.758Z,72.59
2016-04-22T04:26:06.768Z,72.68
2016-04-22T04:27:06.825Z,72.4
2016-04-22T04:28:06.825Z,72.4
2016-04-22T04:29:07.061Z,72.11
2016-04-22T04:30:06.860Z,72.11
2016-04-22T04:31:07.079Z,72.3
2016-04-22T04:32:06.909Z,72.02
2016-04-22T04:33:06.906Z,72.49
2016-04-22T04:34:06.914Z,72.4
2016-04-22T04:35:06.891Z,72.21
2016-04-22T04:36:21.210Z,72.02
2016-04-22T04:37:07.141Z,72.4
2016-04-22T04:38:06.912Z,72.4
2016-04-22T04:39:06.917Z,72.21
2016-04-22T04:40:06.906Z,72.11
2016-04-22T04:42:06.931Z,72.21
2016-04-22T04:43:07.357Z,72.68
2016-04-22T04:44:07.344Z,72.4
2016-04-22T04:45:06.941Z,72.4
2016-04-22T04:46:06.944Z,72.02
2016-04-22T04:47:06.900Z,72.3
2016-04-22T04:48:06.903Z,72.3
2016-04-22T04:49:07.126Z,72.78
2016-04-22T04:50:06.910Z,72.49
2016-04-22T04:51:06.913Z,72.59
2016-04-22T04:52:06.916Z,72.11
2016-04-22T04:53:07.122Z,72.3
2016-04-22T04:54:06.922Z,72.4
2016-04-22T04:55:07.143Z,72.3
2016-04-22T04:56:07.114Z,72.3
2016-04-22T04:57:06.898Z,72.11
2016-04-22T04:58:06.916Z,71.92
2016-04-22T04:59:06.904Z,72.3
2016-04-22T05:00:06.906Z,72.4
2016-04-22T05:01:06.940Z,72.11
2016-04-22T05:02:06.912Z,72.49
2016-04-22T05:03:06.929Z,71.92
2016-04-22T05:04:06.917Z,72.21
2016-04-22T05:05:07.138Z,72.02
2016-04-22T05:06:06.923Z,72.49
2016-04-22T05:07:07.129Z,72.4
2016-04-22T05:08:06.896Z,72.78
2016-04-22T05:09:06.899Z,72.02
2016-04-22T05:10:06.965Z,72.11
2016-04-22T05:11:07.077Z,72.15
2016-04-22T05:12:07.096Z,72.44
2016-04-22T05:13:06.942Z,72.44
2016-04-22T05:14:06.913Z,72.44
2016-04-22T05:15:07.245Z,72.44
2016-04-22T05:16:07.076Z,72.34
2016-04-22T05:17:06.906Z,72.53
2016-04-22T05:19:07.131Z,72.25
2016-04-22T05:20:07.305Z,72.53
2016-04-22T05:21:07.089Z,71.86
2016-04-22T05:22:07.139Z,71.67
2016-04-22T05:23:06.892Z,71.96
2016-04-22T05:24:06.925Z,71.86
2016-04-22T05:25:06.990Z,71.3
2016-04-22T05:26:07.164Z,71.39
2016-04-22T05:27:06.902Z,71.58
2016-04-22T05:28:07.545Z,71.39
2016-04-22T05:29:06.908Z,71.39
2016-04-22T05:30:07.128Z,71.48
2016-04-22T05:31:06.897Z,71.3
2016-04-22T05:32:06.931Z,71.77
2016-04-22T05:34:07.155Z,71.67
2016-04-22T05:35:06.720Z,71.96
2016-04-22T05:36:07.207Z,71.58
2016-04-22T05:37:07.054Z,72.06
2016-04-22T05:38:07.010Z,72.15
2016-04-22T05:39:07.028Z,71.96
2016-04-22T05:40:07.156Z,71.39
2016-04-22T05:41:07.454Z,72.56
2016-04-22T05:42:06.989Z,73.1
2016-04-22T05:43:07.007Z,73.23
2016-04-22T05:44:06.994Z,72.75
2016-04-22T05:45:06.997Z,73.04
2016-04-22T05:46:07.140Z,73.14
2016-04-22T05:47:06.971Z,72.09
2016-04-22T05:48:21.021Z,72.95
2016-04-22T05:49:07.039Z,73.61
2016-04-22T05:50:07.057Z,73.14
2016-04-22T05:51:06.997Z,72.75
2016-04-22T05:52:06.906Z,72.56
2016-04-22T05:53:06.909Z,72.75
2016-04-22T05:54:06.911Z,72.19
2016-04-22T05:55:10.492Z,72.85
2016-04-22T05:56:07.120Z,72.38
2016-04-22T05:57:07.170Z,72.47
2016-04-22T05:58:09.906Z,72.38
2016-04-22T05:59:07.004Z,72.47
2016-04-22T06:00:06.944Z,71.71
2016-04-22T06:01:07.150Z,72
2016-04-22T06:02:07.371Z,71.9
2016-04-22T06:03:06.920Z,72.47
2016-04-22T06:04:06.267Z,72.09
2016-04-22T06:05:06.989Z,71.9
2016-04-22T06:06:06.913Z,72
2016-04-22T06:07:07.072Z,72.56
2016-04-22T06:08:21.028Z,71.62
2016-04-22T06:09:07.062Z,71.71
2016-04-22T06:10:07.126Z,72.09
2016-04-22T06:11:06.926Z,72.09
2016-04-22T06:12:07.054Z,71.81
2016-04-22T06:13:07.104Z,71.52
2016-04-22T06:14:06.965Z,71.71
2016-04-22T06:15:06.922Z,71.23
2016-04-22T06:16:07.189Z,71.9
2016-04-22T06:17:07.348Z,71.43
2016-04-22T06:18:07.601Z,71.62
2016-04-22T06:19:07.167Z,70.95
2016-04-22T06:20:07.137Z,71.37
2016-04-22T06:21:07.047Z,71.23
2016-04-22T06:22:07.143Z,71.66
2016-04-22T06:23:06.989Z,71.37
2016-04-22T06:24:07.195Z,70.99
2016-04-22T06:25:06.933Z,71.27
2016-04-22T06:27:07.001Z,71.66
2016-04-22T06:28:06.925Z,71.08
2016-04-22T06:29:06.959Z,71.66
2016-04-22T06:30:07.242Z,71.84
2016-04-22T06:31:06.981Z,71.37
2016-04-22T06:32:07.155Z,71.18
2016-04-22T06:33:07.345Z,71.84
2016-04-22T06:34:07.067Z,72.13
2016-04-22T06:35:06.928Z,72.03
2016-04-22T06:36:06.947Z,70.99
2016-04-22T06:37:06.981Z,71.46
2016-04-22T06:38:10.093Z,71.27
2016-04-22T06:39:09.346Z,71.08
2016-04-22T06:40:07.160Z,71.46
2016-04-22T06:41:07.101Z,71.27
2016-04-22T06:42:07.010Z,70.99
2016-04-22T06:43:07.184Z,71.37
2016-04-22T06:44:07.140Z,71.31
2016-04-22T06:45:07.065Z,70.61
2016-04-22T06:46:07.318Z,70.79
2016-04-22T06:48:07.151Z,70.32
2016-04-22T06:49:07.294Z,70.45
2016-04-22T06:50:07.360Z,70.45
2016-04-22T06:52:07.146Z,69.41
2016-04-22T06:53:06.976Z,68.84
2016-04-22T06:54:07.058Z,68.27
2016-04-22T06:55:06.966Z,68.46
2016-04-22T06:56:07.000Z,67.98
2016-04-22T06:57:07.003Z,68.07
2016-04-22T06:58:07.068Z,66.27
2016-04-22T06:59:21.181Z,67.5
2016-04-22T07:00:07.356Z,67.32
2016-04-22T07:01:07.217Z,67.5
2016-04-22T07:02:07.016Z,66.84
2016-04-22T07:03:07.097Z,67.03
2016-04-22T07:04:07.022Z,67.22
2016-04-22T07:05:07.306Z,65.89
2016-04-22T07:06:06.980Z,66.55
2016-04-22T07:07:07.171Z,66.84
2016-04-22T07:08:06.986Z,66.87
2016-04-22T07:09:07.207Z,66.78
2016-04-22T07:10:07.210Z,66.87
2016-04-22T07:11:06.853Z,66.78
2016-04-22T07:12:06.981Z,66.39
2016-04-22T07:13:06.969Z,66.68
2016-04-22T07:14:07.236Z,66.59
2016-04-22T07:15:07.224Z,65.83
2016-04-22T07:16:07.195Z,66.11
2016-04-22T07:17:06.994Z,66.59
2016-04-22T07:18:06.997Z,66.39
2016-04-22T07:19:06.999Z,66.2
2016-04-22T07:20:07.237Z,65.92
2016-04-22T07:21:07.005Z,65.54
2016-04-22T07:22:07.007Z,66.02
2016-04-22T07:23:07.026Z,65.16
2016-04-22T07:24:07.029Z,66.3
2016-04-22T07:25:07.031Z,65.64
2016-04-22T07:26:07.222Z,66.3
2016-04-22T07:27:07.459Z,65.48
2016-04-22T07:28:07.023Z,65.06
2016-04-22T07:29:06.870Z,64.81
2016-04-22T07:30:07.029Z,64.34
2016-04-22T07:31:07.032Z,65
2016-04-22T07:33:07.053Z,64.53
2016-04-22T07:34:07.055Z,63.67
2016-04-22T07:35:07.247Z,64.24
2016-04-22T07:36:07.061Z,63.57
2016-04-22T07:37:07.064Z,64.62
2016-04-22T07:38:07.270Z,64.43
2016-04-22T07:39:07.100Z,63.1
2016-04-22T07:40:07.056Z,63.86
2016-04-22T07:41:07.059Z,63.76
2016-04-22T07:42:07.077Z,63.48
2016-04-22T07:43:07.064Z,63.1
2016-04-22T07:44:07.349Z,63.39
2016-04-22T07:45:07.101Z,63.39
2016-04-22T07:46:07.072Z,63.67
2016-04-22T07:47:07.107Z,63.57
2016-04-22T07:48:07.281Z,63.2
2016-04-22T07:49:07.112Z,62.91
2016-04-22T07:50:07.318Z,62.43
2016-04-22T07:51:07.148Z,62.72
2016-04-22T07:52:07.307Z,62.81
2016-04-22T07:53:07.107Z,62.62
2016-04-22T07:54:07.109Z,62.24
2016-04-22T07:55:07.143Z,62.43
2016-04-22T07:56:07.131Z,62.91
2016-04-22T07:57:07.118Z,62.94
2016-04-22T07:58:07.121Z,62.37
2016-04-22T07:59:07.155Z,61.51
2016-04-22T08:00:07.157Z,61.67
2016-04-22T08:01:07.379Z,60.82
2016-04-22T08:02:07.365Z,61.29
2016-04-22T08:03:06.977Z,61.8
2016-04-22T08:04:07.168Z,61.7
2016-04-22T08:05:07.359Z,61.8
2016-04-22T08:07:07.379Z,61.61
2016-04-22T08:08:06.694Z,61.7
2016-04-22T08:09:07.150Z,61.7
2016-04-22T08:10:07.153Z,60.18
2016-04-22T08:11:07.171Z,60.46
2016-04-22T08:12:07.174Z,61.61
2016-04-22T08:13:07.208Z,61.32
2016-04-22T08:14:07.179Z,61.13
2016-04-22T08:15:07.182Z,61.32
2016-04-22T08:16:07.403Z,61.61
2016-04-22T08:17:07.640Z,60.27
2016-04-22T08:18:07.190Z,60.66
2016-04-22T08:19:07.193Z,59.89
2016-04-22T08:20:07.196Z,60.18
2016-04-22T08:21:07.198Z,60.56
2016-04-22T08:22:07.185Z,61.13
2016-04-22T08:23:07.407Z,61.35
2016-04-22T08:24:07.206Z,60.69
2016-04-22T08:25:07.443Z,60.69
2016-04-22T08:26:07.259Z,60.4
2016-04-22T08:27:07.464Z,60.02
2016-04-22T08:28:07.248Z,59.64
2016-04-22T08:29:07.267Z,59.83
2016-04-22T08:30:07.269Z,60.11
2016-04-22T08:31:07.240Z,60.02
2016-04-22T08:32:07.228Z,59.64
2016-04-22T08:33:07.245Z,58.97
2016-04-22T08:34:07.248Z,59.06
2016-04-22T08:35:07.486Z,58.97
2016-04-22T08:36:07.253Z,59.06
2016-04-22T08:37:07.273Z,59.35
2016-04-22T08:38:07.275Z,59.06
2016-04-22T08:39:07.480Z,58.62
2016-04-22T08:40:21.374Z,59.35
2016-04-22T08:41:07.502Z,59.26
2016-04-22T08:43:07.305Z,58.97
2016-04-22T08:44:07.322Z,59.48
2016-04-22T08:45:07.528Z,58.81
2016-04-22T08:46:07.297Z,59.09
2016-04-22T08:47:07.549Z,59.76
2016-04-22T08:48:07.536Z,59.76
2016-04-22T08:49:07.555Z,60.33
2016-04-22T08:50:07.338Z,59.86
2016-04-22T08:51:07.326Z,59.76
2016-04-22T08:52:21.421Z,59.09
2016-04-22T08:53:07.347Z,59.28
2016-04-22T08:54:07.334Z,59.28
2016-04-22T08:55:07.571Z,58.62
2016-04-22T08:56:07.355Z,58.62
2016-04-22T08:57:07.357Z,59.38
2016-04-22T08:58:07.781Z,59.31
2016-04-22T08:59:21.456Z,57.12
2016-04-22T09:00:07.413Z,55.98
2016-04-22T09:01:07.384Z,56.36
2016-04-22T09:02:07.387Z,56.74
2016-04-22T09:03:07.451Z,57.5
2016-04-22T09:04:07.611Z,56.65
2016-04-22T09:05:07.629Z,56.84
2016-04-22T09:06:07.397Z,56.46
2016-04-22T09:07:07.415Z,56.36
2016-04-22T09:08:07.434Z,55.88
2016-04-22T09:09:07.421Z,55.6
2016-04-22T09:10:07.439Z,55.02
2016-04-22T09:11:07.442Z,55.12
2016-04-22T09:12:07.475Z,55.5
2016-04-22T09:13:07.666Z,55.41
2016-04-22T09:14:07.480Z,55.5
2016-04-22T09:15:07.483Z,54.93
2016-04-22T09:16:07.534Z,54.83
2016-04-22T09:17:07.505Z,55.31
2016-04-22T09:18:07.524Z,55.02
2016-04-22T09:19:07.526Z,55.41
2016-04-22T09:20:07.529Z,55.79
2016-04-22T09:21:07.516Z,55.41
2016-04-22T09:22:07.721Z,55.41
2016-04-22T09:23:07.512Z,55.43
2016-04-22T09:24:07.531Z,54.67
2016-04-22T09:25:07.752Z,52.73
2016-04-22T09:26:07.739Z,51.88
2016-04-22T09:27:07.539Z,52.26
2016-04-22T09:28:07.588Z,53.41
2016-04-22T09:29:08.217Z,53.78
2016-04-22T09:30:07.578Z,54.45
2016-04-22T09:31:07.096Z,54.07
2016-04-22T09:32:07.584Z,51.59
2016-04-22T09:33:07.586Z,52.55
2016-04-22T09:34:07.807Z,53.59
2016-04-22T09:35:07.795Z,54.45
2016-04-22T09:36:07.611Z,53.78
2016-04-22T09:37:07.800Z,54.17
2016-04-22T09:38:07.601Z,54.64
2016-04-22T09:39:07.853Z,53.97
2016-04-22T09:40:07.653Z,52.45
2016-04-22T09:41:07.639Z,53.02
2016-04-22T09:42:07.642Z,53.88
2016-04-22T09:43:07.661Z,53.5
2016-04-22T09:44:07.647Z,53.12
2016-04-22T09:45:07.666Z,53.21
2016-04-22T09:46:07.700Z,51.5
2016-04-22T09:47:07.891Z,51.31
2016-04-22T09:48:08.112Z,51.31
2016-04-22T09:49:07.693Z,51.88
2016-04-22T09:50:07.680Z,52.64
2016-04-22T09:51:07.713Z,52.26
2016-04-22T09:52:07.904Z,52.16
2016-04-22T09:53:07.734Z,53.24
2016-04-22T09:54:07.721Z,53.69
2016-04-22T09:55:07.724Z,52.86
2016-04-22T09:56:07.930Z,52.57
2016-04-22T09:57:07.746Z,51.23
2016-04-22T09:58:07.748Z,51.43
2016-04-22T09:59:07.751Z,51.14
2016-04-22T10:01:07.771Z,48.66
2016-04-22T10:02:07.978Z,48.66
2016-04-22T10:03:07.776Z,49.33
2016-04-22T10:04:07.780Z,49.8
2016-04-22T10:05:07.797Z,47.03
2016-04-22T10:07:07.850Z,50.28
2016-04-22T10:13:39.930Z,48.75
2016-04-22T10:14:40.715Z,49.23
2016-04-22T10:15:40.483Z,48.75
2016-04-22T10:16:40.486Z,48.47
2016-04-22T10:17:40.520Z,48.37
2016-04-22T10:18:40.507Z,47.71
2016-04-22T10:19:40.541Z,48.47
2016-04-22T10:20:40.513Z,48.18
2016-04-22T10:21:40.546Z,47.52
2016-04-22T10:22:40.580Z,48.37
2016-04-22T10:23:40.739Z,49.44
2016-04-22T10:24:40.742Z,49.16
2016-04-22T10:25:40.729Z,48.78
2016-04-22T10:26:40.559Z,48.78
2016-04-22T10:27:40.547Z,45.72
2016-04-22T10:28:40.565Z,45.92
2016-04-22T10:29:40.568Z,46.48
2016-04-22T10:30:40.570Z,45.63
2016-04-22T10:31:40.589Z,46.01
2016-04-22T10:32:40.592Z,46.58
2016-04-22T10:33:40.595Z,47.16
2016-04-22T10:34:40.660Z,46.97
2016-04-22T10:35:40.631Z,46.97
2016-04-22T10:36:40.649Z,46.97
2016-04-22T10:37:40.667Z,46.58
2016-04-22T10:38:40.670Z,46.01
2016-04-22T10:39:40.642Z,46.11
2016-04-22T10:41:40.897Z,44.48
2016-04-22T10:42:40.697Z,45.82
2016-04-22T10:43:40.903Z,45.63
2016-04-22T10:44:40.889Z,46.77
2016-04-22T10:45:40.674Z,45.63
2016-04-22T10:46:40.941Z,46.77
2016-04-22T10:47:40.694Z,46.58
2016-04-22T10:48:40.697Z,44.67
2016-04-22T10:49:40.699Z,45.32
2016-04-22T10:50:40.702Z,43.82
2016-04-22T10:51:40.736Z,43.53
2016-04-22T10:52:40.910Z,42.77
2016-04-22T10:53:40.710Z,42.19
2016-04-22T10:54:40.932Z,41.81
2016-04-22T10:55:40.747Z,42.86
2016-04-22T10:56:40.937Z,44.2
2016-04-22T10:57:40.799Z,44.38
2016-04-22T10:58:40.755Z,42.86
2016-04-22T10:59:40.773Z,42.27
2016-04-22T11:00:40.761Z,42.74
2016-04-22T11:01:40.998Z,38.85
2016-04-22T11:02:40.797Z,37.02
2016-04-22T11:03:40.800Z,36.37
2016-04-22T11:04:40.802Z,36.25
2016-04-22T11:05:40.337Z,38.73
2016-04-22T11:06:40.824Z,40
2016-04-22T11:08:40.813Z,40.09
2016-04-22T11:09:40.816Z,39.52
2016-04-22T11:10:40.834Z,41.05
2016-04-22T11:11:40.852Z,42.86
2016-04-22T11:12:40.839Z,40.95
2016-04-22T11:13:40.874Z,41.05
2016-04-22T11:14:40.845Z,39.52
2016-04-22T11:15:40.879Z,39.32
2016-04-22T11:16:40.882Z,39.32
2016-04-22T11:17:40.868Z,38.66
2016-04-22T11:18:40.887Z,39.81
2016-04-22T11:19:41.093Z,41.14
2016-04-22T11:20:40.893Z,40.76
2016-04-22T11:21:40.185Z,41.52
2016-04-22T11:22:40.748Z,42.29
2016-04-22T11:23:40.907Z,41.62
2016-04-22T11:24:41.114Z,41.14
2016-04-22T11:25:40.912Z,41.06
2016-04-22T11:26:40.931Z,41.45
2016-04-22T11:27:40.934Z,41.55
2016-04-22T11:28:40.984Z,40.88
2016-04-22T11:29:40.939Z,38.78
2016-04-22T11:31:40.945Z,34.95
2016-04-22T11:32:41.182Z,34.09
2016-04-22T11:33:40.950Z,35.91
2016-04-22T11:34:40.999Z,37.73
2016-04-22T11:35:41.190Z,38.2
2016-04-22T11:36:40.536Z,36.77
2016-04-22T11:37:41.194Z,36.19
2016-04-22T11:38:40.557Z,36.77
2016-04-22T11:39:41.013Z,36.96
2016-04-22T11:40:41.016Z,35.62
2016-04-22T11:41:41.018Z,34.4
2016-04-22T11:42:41.037Z,32.95
2016-04-22T11:44:41.043Z,33.73
2016-04-22T11:45:41.060Z,34.48
2016-04-22T11:46:41.047Z,34.49
2016-04-22T11:47:41.065Z,35.93
2016-04-22T11:48:41.068Z,36.6
2016-04-22T11:49:41.087Z,35.26
2016-04-22T11:50:41.089Z,35.55
2016-04-22T11:51:41.076Z,33.06
2016-04-22T11:52:41.095Z,30.86
2016-04-22T11:53:41.098Z,30.58
2016-04-22T11:54:41.334Z,30.67
2016-04-22T11:55:41.118Z,29.81
2016-04-22T11:56:41.120Z,29.43
2016-04-22T11:57:41.140Z,30.67
2016-04-22T11:58:41.173Z,31.93
2016-04-22T11:59:41.348Z,32.12
2016-04-22T12:00:41.148Z,30.88
2016-04-22T12:01:41.166Z,29.54
2016-04-22T12:02:41.169Z,29.35
2016-04-22T12:03:41.406Z,29.92
2016-04-22T12:04:41.174Z,30.49
2016-04-22T12:05:41.224Z,30.21
2016-04-22T12:06:41.227Z,31.74
2016-04-22T12:07:41.197Z,33.07
2016-04-22T12:08:41.216Z,33.94
2016-04-22T12:09:41.219Z,32.98
2016-04-22T12:10:41.252Z,33.17
2016-04-22T12:11:41.240Z,32.89
2016-04-22T12:12:41.257Z,34.14
2016-04-22T12:13:41.260Z,33.67
2016-04-22T12:14:41.263Z,31.66
2016-04-22T12:15:41.266Z,33
2016-04-22T12:16:41.410Z,30.7
2016-04-22T12:17:41.288Z,29.55
2016-04-22T12:18:41.290Z,29.36
2016-04-22T12:19:41.981Z,27.26
2016-04-22T12:20:41.531Z,26.3
2016-04-22T12:21:41.628Z,28.5
2016-04-22T12:22:41.318Z,29.65
2016-04-22T12:23:41.539Z,28.79
2016-04-22T12:24:41.323Z,28.5
2016-04-22T12:25:41.325Z,27.83
2016-04-22T12:26:41.344Z,29.08
2016-04-22T12:27:41.363Z,29.27
2016-04-22T12:28:41.350Z,29.55
2016-04-22T12:29:41.572Z,30.61
2016-04-22T12:30:41.574Z,31.18
2016-04-22T12:31:41.592Z,31.77
2016-04-22T12:32:41.610Z,32.54
2016-04-22T12:33:41.410Z,31.48
2016-04-22T12:34:41.413Z,29.66
2016-04-22T12:35:41.619Z,29.86
2016-04-22T12:36:41.638Z,31.38
2016-04-22T12:37:41.655Z,30.33
2016-04-22T12:38:41.690Z,29.38
2016-04-22T12:39:41.489Z,31.48
2016-04-22T12:40:41.460Z,30.33
2016-04-22T12:41:41.479Z,30.44
2016-04-22T12:42:41.481Z,29.58
2016-04-22T12:43:41.484Z,28.72
2016-04-22T12:44:41.518Z,29.49
2016-04-22T12:45:41.504Z,28.44
2016-04-22T12:46:41.507Z,28.72
2016-04-22T12:47:41.556Z,25.85
2016-04-22T12:48:41.544Z,26.9
2016-04-22T12:49:41.562Z,25.56
2016-04-22T12:50:41.550Z,23.93
2016-04-22T12:51:41.567Z,23.17
2016-04-22T12:52:41.571Z,23.46
2016-04-22T12:53:41.823Z,25.46
2016-04-22T12:54:55.903Z,28.53
2016-04-22T12:55:41.641Z,28.91
2016-04-22T12:56:41.628Z,27.48
2016-04-22T12:57:41.850Z,28.44
2016-04-22T12:58:41.650Z,27.58
2016-04-22T12:59:41.668Z,28.63
2016-04-22T13:00:41.655Z,28.44
2016-04-22T13:01:41.657Z,26.63
2016-04-22T13:02:41.675Z,27.49
2016-04-22T13:03:41.694Z,27.01
2016-04-22T13:04:41.916Z,24.62
2016-04-22T13:05:41.735Z,27.3
2016-04-22T13:06:41.754Z,28.64
2016-04-22T13:07:55.804Z,27.78
2016-04-22T13:08:41.759Z,25
2016-04-22T13:09:42.152Z,23.08
2016-04-22T13:10:41.780Z,22.99
2016-04-22T13:11:41.783Z,22.8
2016-04-22T13:13:41.773Z,23.94
2016-04-22T13:14:42.010Z,23.27
2016-04-22T13:16:41.828Z,24.33
2016-04-22T13:17:41.819Z,22.03
2016-04-22T13:18:42.057Z,21.94
2016-04-22T13:19:41.841Z,25.29
2016-04-22T13:20:41.843Z,24.43
2016-04-22T13:21:41.850Z,23.57
2016-04-22T13:22:41.869Z,24.51
2016-04-22T13:23:42.075Z,24.23
2016-04-22T13:24:42.077Z,26.14
2016-04-22T13:25:41.893Z,24.8
2016-04-22T13:26:41.911Z,24.22
2016-04-22T13:27:42.164Z,25.09
2016-04-22T13:28:41.999Z,27